SUCCESS DAM (SCC)

Elevation: 692' · TULE R basin · Operator: US Army Corps of Engineers

Provisional data, subject to change.
Query executed Thursday at 14:05:30   clock

Select a sensor type for a plot of data.
Note: Reservoir Flows are daily averages.

Earlier

Date RES ELE    STORAGE    RES CHG    TOC STO    ABV TOC    OUTFLOW    INFLOW    FNF    PPT INC    PPTINC4    TEMP MN    TEMP MX    WINDLEN    EVP PAN   
 FEET   AF   AF   AF   AF   CFS   CFS   CFS   INCHES   INCHES   DEG F   DEG F   MILES   INCHES  
02/06/2015 584.03 5482 7 12425 -6943 16 21 21 0.00 0.00 9 30 75 0.14
02/07/2015 584.09 5502 20 12345 -6843 16 27 27 0.00 0.00 15 20 68 0.05
02/08/2015 584.65 5692 190 12666 -6974 16 113 113 0.00 0.34 11 27 57 0.10
02/09/2015 585.15 5866 174 12987 -7121 16 105 105 0.00 0.00 11 22 53 0.10
02/10/2015 585.67 6050 184 13308 -7258 16 110 110 0.00 0.00 7 20 48 0.08
02/11/2015 586.01 6173 123 13628 -7455 14 77 77 0.00 0.00 7 21 53 0.10
02/12/2015 586.26 6264 91 13949 -7685 14 61 61 0.02 0.00 6 24 55 0.12
02/13/2015 586.45 6335 71 14270 -7935 14 51 51 0.02 0.00 7 26 61 0.13
02/14/2015 586.61 6394 59 14591 -8197 15 46 46 0.00 0.00 8 25 59 0.12
02/15/2015 586.75 6446 52 14911 -8465 15 42 42 0.00 0.00 8 25 59 0.12
02/16/2015 586.86 6488 42 15232 -8744 15 37 37 0.02 0.00 9 26 57 0.13
02/17/2015 586.97 6529 41 15553 -9024 14 36 36 0.00 0.00 9 26 59 0.13
02/18/2015 587.07 6567 38 16274 -9707 13 33 33 0.00 0.00 8 20 63 0.10
02/19/2015 587.15 6597 30 16594 -9997 13 29 29 0.00 0.00 7 23 57 0.12
02/20/2015 587.24 6632 35 16915 -10283 13 31 31 0.00 0.00 7 18 63 0.09
02/21/2015 -- -- -- 17236 -- -- -- 35 0.00 0.00 -- -- -- --
02/22/2015 587.49 6728 -- 17557 -- 12 40 40 0.37 0.00 8 14 56 0.04
02/23/2015 587.80 6848 -- 17477 -10629 12 73 73 0.38 0.45 6 17 56 0.07
02/24/2015 588.08 6958 110 17798 -10840 12 69 69 0.01 0.37 3 18 58 0.11
02/25/2015 588.29 7042 -- 18119 -11077 12 56 56 0.00 0.00 6 20 63 0.12
02/26/2015 588.47 7114 72 18440 -11326 11 49 49 0.00 0.00 6 20 59 0.12
02/27/2015 588.64 7182 68 18760 -11578 12 47 47 0.00 0.00 7 19 67 0.11
02/28/2015 588.82 7255 73 19081 -11826 12 50 50 0.01 0.00 7 18 51 0.11
03/01/2015 588.99 7325 70 19402 -12077 11 48 48 0.00 0.01 4 16 56 0.08
03/02/2015 589.16 7395 70 19723 -12328 -- -- 47 -- 0.01 -- -- -- --
03/03/2015 589.29 7448 53 20043 -12595 -- -- -- -- 0.06 -- -- -- --
03/04/2015 589.40 7494 46 20364 -12870 -- -- -- -- 0.00 -- -- -- --
03/05/2015 -- -- -- -- -- -- -- -- -- 0.00 -- -- -- --

Later | Latest

Warning! This data is preliminary and subject to revision.

Show SCC Map | Plot SCC Data | 1 Month SCC Data | Real-Time SCC Data | SCC Info